createdAt,value
2018-11-03T00:00:53.156Z,17.90
2018-11-03T00:03:23.892Z,16.27
2018-11-03T00:05:53.624Z,16.37
2018-11-03T00:08:24.307Z,16.43
2018-11-03T00:10:54.019Z,16.57
2018-11-03T00:13:23.842Z,16.80
2018-11-03T00:15:53.498Z,15.73
2018-11-03T00:18:24.132Z,20.40
2018-11-03T00:20:53.755Z,13.43
2018-11-03T00:23:23.401Z,13.73
2018-11-03T00:25:53.056Z,13.13
2018-11-03T00:28:22.679Z,14.67
2018-11-03T00:30:52.368Z,14.03
2018-11-03T00:33:23.014Z,14.17
2018-11-03T00:35:52.650Z,14.50
2018-11-03T00:38:22.307Z,13.67
2018-11-03T00:40:51.940Z,14.27
2018-11-03T00:43:21.587Z,14.53
2018-11-03T00:45:52.257Z,20.13
2018-11-03T00:48:21.863Z,19.17
2018-11-03T00:50:51.547Z,15.93
2018-11-03T00:53:21.154Z,14.67
2018-11-03T00:55:50.791Z,13.83
2018-11-03T00:58:20.407Z,13.93
2018-11-03T01:00:50.356Z,13.57
2018-11-03T01:03:21.003Z,13.43
2018-11-03T01:05:50.665Z,14.30
2018-11-03T01:08:20.289Z,36.70
2018-11-03T01:10:49.983Z,26.13
2018-11-03T01:13:19.623Z,22.80
2018-11-03T01:15:49.275Z,16.20
2018-11-03T01:18:18.871Z,18.17
2018-11-03T01:20:48.471Z,15.77
2018-11-03T01:23:18.390Z,15.73
2018-11-03T01:25:48.028Z,13.87
2018-11-03T01:28:17.676Z,14.30
2018-11-03T01:30:47.316Z,16.67
2018-11-03T01:33:16.936Z,14.90
2018-11-03T01:35:46.553Z,17.00
2018-11-03T01:38:16.195Z,15.57
2018-11-03T01:40:46.855Z,15.50
2018-11-03T01:43:16.484Z,16.70
2018-11-03T01:45:46.101Z,17.30
2018-11-03T01:48:16.227Z,17.13
2018-11-03T01:50:45.860Z,18.30
2018-11-03T01:53:15.495Z,17.93
2018-11-03T01:55:45.114Z,18.07
2018-11-03T01:58:14.742Z,18.03
2018-11-03T02:00:45.363Z,19.37
2018-11-03T02:03:15.004Z,22.57
2018-11-03T02:05:44.659Z,20.53
2018-11-03T02:08:14.300Z,17.60
2018-11-03T02:10:43.937Z,17.27
2018-11-03T02:13:13.604Z,18.97
2018-11-03T02:15:44.548Z,19.20
2018-11-03T02:18:15.258Z,21.67
2018-11-03T02:20:44.944Z,22.43
2018-11-03T02:23:14.588Z,20.73
2018-11-03T02:25:44.283Z,21.13
2018-11-03T02:28:14.939Z,20.97
2018-11-03T02:30:44.649Z,19.70
2018-11-03T02:33:14.318Z,21.17
2018-11-03T02:35:43.932Z,18.70
2018-11-03T02:38:13.575Z,20.33
2018-11-03T02:40:43.255Z,20.03
2018-11-03T02:43:12.882Z,19.17
2018-11-03T02:45:42.534Z,18.80
2018-11-03T02:48:12.229Z,18.80
2018-11-03T02:50:41.892Z,18.47
2018-11-03T02:53:11.512Z,17.90
2018-11-03T02:55:41.099Z,18.30
2018-11-03T02:58:10.695Z,17.32
2018-11-03T03:00:40.350Z,17.67
2018-11-03T03:03:10.035Z,16.67
2018-11-03T03:05:39.652Z,15.77
2018-11-03T03:08:10.323Z,15.50
2018-11-03T03:10:40.810Z,14.57
2018-11-03T03:13:10.428Z,14.27
2018-11-03T03:15:40.042Z,14.67
2018-11-03T03:18:09.656Z,14.57
2018-11-03T03:20:39.251Z,13.47
2018-11-03T03:23:08.857Z,14.17
2018-11-03T03:25:38.474Z,14.43
2018-11-03T03:28:08.152Z,14.67
2018-11-03T03:30:38.324Z,15.40
2018-11-03T03:33:07.968Z,14.20
2018-11-03T03:35:37.589Z,15.73
2018-11-03T03:38:08.251Z,14.97
2018-11-03T03:40:37.871Z,15.30
2018-11-03T03:43:07.483Z,15.37
2018-11-03T03:45:37.113Z,22.90
2018-11-03T03:48:06.798Z,24.67
2018-11-03T03:50:36.410Z,15.97
2018-11-03T03:53:06.039Z,15.83
2018-11-03T03:55:36.686Z,15.60
2018-11-03T03:58:06.643Z,14.93
2018-11-03T04:00:36.303Z,14.00
2018-11-03T04:03:06.057Z,13.70
2018-11-03T04:05:36.118Z,13.83
2018-11-03T04:08:06.817Z,15.30
2018-11-03T04:10:37.493Z,15.50
2018-11-03T04:13:07.220Z,14.73
2018-11-03T04:15:37.489Z,14.80
2018-11-03T04:18:07.236Z,13.07
2018-11-03T04:20:36.868Z,12.87
2018-11-03T04:23:06.505Z,14.77
2018-11-03T04:25:36.212Z,14.33
2018-11-03T04:28:05.891Z,14.17
2018-11-03T04:30:35.521Z,14.13
2018-11-03T04:33:05.194Z,13.53
2018-11-03T04:35:34.829Z,13.00
2018-11-03T04:38:05.270Z,13.87
2018-11-03T04:40:35.718Z,13.93
2018-11-03T04:43:05.456Z,17.60
2018-11-03T04:45:35.259Z,16.00
2018-11-03T04:48:05.489Z,13.38
2018-11-03T04:50:35.138Z,14.40
2018-11-03T04:53:05.479Z,15.53
2018-11-03T04:55:35.103Z,19.07
2018-11-03T04:58:05.898Z,14.93
2018-11-03T05:00:35.523Z,17.80
2018-11-03T05:03:05.843Z,17.77
2018-11-03T05:05:35.494Z,18.10
2018-11-03T05:08:05.207Z,18.73
2018-11-03T05:10:34.950Z,15.80
2018-11-03T05:13:05.217Z,14.47
2018-11-03T05:15:35.889Z,14.57
2018-11-03T05:18:05.635Z,14.43
2018-11-03T05:20:35.358Z,14.80
2018-11-03T05:23:05.549Z,14.43
2018-11-03T05:25:35.212Z,15.77
2018-11-03T05:28:05.400Z,14.53
2018-11-03T05:30:35.060Z,15.23
2018-11-03T05:33:05.444Z,13.50
2018-11-03T05:35:35.083Z,13.80
2018-11-03T05:38:05.577Z,13.13
2018-11-03T05:40:35.207Z,13.93
2018-11-03T05:43:06.591Z,13.75
2018-11-03T05:45:36.234Z,13.70
2018-11-03T05:48:05.859Z,14.57
2018-11-03T05:50:35.486Z,14.57
2018-11-03T05:53:06.139Z,13.53
2018-11-03T05:55:36.763Z,14.33
2018-11-03T05:58:06.897Z,13.70
2018-11-03T06:00:36.532Z,13.60
2018-11-03T06:03:06.332Z,13.63
2018-11-03T06:05:36.937Z,11.43
2018-11-03T06:08:07.157Z,14.30
2018-11-03T06:10:36.796Z,12.70
2018-11-03T06:13:06.712Z,20.60
2018-11-03T06:15:37.487Z,15.73
2018-11-03T06:18:07.232Z,14.43
2018-11-03T06:20:37.889Z,14.70
2018-11-03T06:23:08.795Z,13.00
2018-11-03T06:25:38.413Z,13.33
2018-11-03T06:28:08.132Z,12.63
2018-11-03T06:30:38.743Z,13.10
2018-11-03T06:33:08.356Z,15.53
2018-11-03T06:35:37.966Z,14.50
2018-11-03T06:38:07.576Z,11.80
2018-11-03T06:40:38.205Z,12.30
2018-11-03T06:43:08.679Z,15.03
2018-11-03T06:45:38.311Z,14.93
2018-11-03T06:48:08.263Z,17.17
2018-11-03T06:50:37.971Z,16.67
2018-11-03T06:53:07.567Z,18.37
2018-11-03T06:55:38.222Z,13.97
2018-11-03T06:58:07.847Z,14.13
2018-11-03T07:00:37.488Z,16.00
2018-11-03T07:03:07.107Z,14.37
2018-11-03T07:05:36.703Z,13.80
2018-11-03T07:08:06.671Z,11.73
2018-11-03T07:10:36.319Z,14.07
2018-11-03T07:13:06.054Z,14.60
2018-11-03T07:15:35.670Z,13.57
2018-11-03T07:18:06.395Z,14.30
2018-11-03T07:20:36.035Z,14.67
2018-11-03T07:23:05.979Z,14.93
2018-11-03T07:25:35.634Z,16.50
2018-11-03T07:28:05.649Z,17.87
2018-11-03T07:30:35.276Z,13.40
2018-11-03T07:33:05.343Z,14.63
2018-11-03T07:35:36.140Z,13.40
2018-11-03T07:38:08.044Z,13.40
2018-11-03T07:40:37.754Z,14.23
2018-11-03T07:43:07.359Z,14.33
2018-11-03T07:45:36.939Z,12.90
2018-11-03T07:48:06.734Z,13.77
2018-11-03T07:50:37.299Z,11.30
2018-11-03T07:53:06.973Z,12.47
2018-11-03T07:55:36.580Z,13.97
2018-11-03T07:58:06.536Z,22.47
2018-11-03T08:00:37.092Z,36.50
2018-11-03T08:03:19.367Z,26.13
2018-11-03T08:05:50.123Z,32.73
2018-11-03T08:08:19.768Z,31.70
2018-11-03T08:10:49.380Z,19.13
2018-11-03T08:13:20.049Z,27.43
2018-11-03T08:15:49.772Z,22.20
2018-11-03T08:18:19.366Z,24.37
2018-11-03T08:20:49.123Z,20.47
2018-11-03T08:23:18.756Z,13.67
2018-11-03T08:25:48.363Z,12.63
2018-11-03T08:28:17.960Z,14.63
2018-11-03T08:30:47.585Z,16.33
2018-11-03T08:33:17.235Z,19.73
2018-11-03T08:35:46.836Z,15.10
2018-11-03T08:38:16.442Z,12.33
2018-11-03T08:40:46.503Z,15.13
2018-11-03T08:43:16.105Z,15.23
2018-11-03T08:45:45.724Z,13.43
2018-11-03T08:48:15.382Z,13.30
2018-11-03T08:50:44.972Z,12.13
2018-11-03T08:53:14.583Z,13.80
2018-11-03T08:55:44.741Z,16.40
2018-11-03T08:58:14.355Z,14.03
2018-11-03T09:00:43.991Z,16.27
2018-11-03T09:03:13.618Z,16.67
2018-11-03T09:05:43.232Z,14.70
2018-11-03T09:08:13.874Z,13.43
2018-11-03T09:10:43.704Z,28.57
2018-11-03T09:13:13.333Z,35.40
2018-11-03T09:15:42.976Z,29.33
2018-11-03T09:18:13.620Z,13.13
2018-11-03T09:20:44.323Z,13.57
2018-11-03T09:23:14.247Z,15.80
2018-11-03T09:25:44.124Z,15.10
2018-11-03T09:28:13.735Z,14.10
2018-11-03T09:30:43.368Z,12.67
2018-11-03T09:33:14.023Z,13.47
2018-11-03T09:35:43.701Z,17.83
2018-11-03T09:38:15.079Z,13.30
2018-11-03T09:40:44.703Z,9.47
2018-11-03T09:43:14.337Z,10.63
2018-11-03T09:45:43.966Z,12.50
2018-11-03T09:48:14.648Z,11.30
2018-11-03T09:50:44.367Z,9.20
2018-11-03T09:53:13.976Z,15.07
2018-11-03T09:55:43.649Z,9.43
2018-11-03T09:58:13.780Z,10.60
2018-11-03T10:00:43.392Z,11.13
2018-11-03T10:03:13.009Z,12.83
2018-11-03T10:05:42.650Z,7.57
2018-11-03T10:08:12.788Z,11.13
2018-11-03T10:10:42.485Z,10.60
2018-11-03T10:13:12.105Z,12.30
2018-11-03T10:15:41.752Z,9.17
2018-11-03T10:18:12.388Z,10.87
2018-11-03T10:20:42.031Z,12.77
2018-11-03T10:23:11.680Z,11.20
2018-11-03T10:25:41.312Z,12.13
2018-11-03T10:28:10.928Z,18.07
2018-11-03T10:30:40.981Z,17.23
2018-11-03T10:33:10.575Z,8.73
2018-11-03T10:35:40.171Z,7.90
2018-11-03T10:38:09.773Z,7.10
2018-11-03T10:40:40.208Z,10.00
2018-11-03T10:43:10.161Z,7.90
2018-11-03T10:45:40.006Z,9.00
2018-11-03T10:48:11.025Z,7.40
2018-11-03T10:50:40.671Z,7.53
2018-11-03T10:53:10.290Z,6.87
2018-11-03T10:55:40.388Z,8.77
2018-11-03T10:58:10.035Z,7.57
2018-11-03T11:00:45.228Z,8.93
2018-11-03T11:03:20.092Z,6.67
2018-11-03T11:05:54.856Z,5.77
2018-11-03T11:08:29.935Z,6.50
2018-11-03T11:11:04.884Z,7.27
2018-11-03T11:13:36.271Z,6.30
2018-11-03T11:16:06.008Z,5.33
2018-11-03T11:18:35.659Z,5.50
2018-11-03T11:21:05.826Z,5.33
2018-11-03T11:23:35.481Z,5.77
2018-11-03T11:26:06.339Z,5.77
2018-11-03T11:28:37.105Z,5.53
2018-11-03T11:31:08.136Z,5.40
2018-11-03T11:33:39.385Z,4.70
2018-11-03T11:36:09.027Z,5.17
2018-11-03T11:38:38.695Z,4.90
2018-11-03T11:41:08.408Z,6.40
2018-11-03T11:43:38.045Z,5.23
2018-11-03T11:46:07.723Z,4.70
2018-11-03T11:48:38.371Z,5.30
2018-11-03T11:51:08.048Z,3.33
2018-11-03T11:53:38.065Z,2.93
2018-11-03T11:56:08.439Z,2.87
2018-11-03T11:58:38.077Z,2.90
2018-11-03T12:01:08.842Z,2.20
2018-11-03T12:03:38.653Z,2.40
2018-11-03T12:06:10.660Z,2.67
2018-11-03T12:08:40.367Z,3.90
2018-11-03T12:11:10.324Z,3.57
2018-11-03T12:13:40.098Z,4.10
2018-11-03T12:16:10.102Z,3.83
2018-11-03T12:18:41.331Z,2.37
2018-11-03T12:21:11.622Z,2.50
2018-11-03T12:23:41.237Z,2.63
2018-11-03T12:26:10.880Z,3.00
2018-11-03T12:28:40.575Z,2.27
2018-11-03T12:31:10.167Z,2.13
2018-11-03T12:33:41.596Z,1.90
2018-11-03T12:36:12.128Z,2.50
2018-11-03T12:38:42.374Z,2.20
2018-11-03T12:41:13.611Z,2.50
2018-11-03T12:43:43.182Z,3.50
2018-11-03T12:46:13.984Z,1.70
2018-11-03T12:48:43.587Z,2.80
2018-11-03T12:51:13.608Z,2.27
2018-11-03T12:53:44.223Z,2.77
2018-11-03T12:56:14.262Z,1.67
2018-11-03T12:58:45.363Z,1.00
2018-11-03T13:01:15.361Z,1.30
2018-11-03T13:03:45.173Z,2.07
2018-11-03T13:06:16.319Z,1.40
2018-11-03T13:08:46.697Z,1.50
2018-11-03T13:11:16.384Z,1.30
2018-11-03T13:13:46.404Z,1.40
2018-11-03T13:16:16.028Z,1.50
2018-11-03T13:18:47.268Z,1.37
2018-11-03T13:21:21.434Z,1.53
2018-11-03T13:23:51.370Z,1.20
2018-11-03T13:26:20.956Z,1.27
2018-11-03T13:28:50.655Z,1.20
2018-11-03T13:31:21.900Z,1.30
2018-11-03T13:33:52.177Z,1.50
2018-11-03T13:36:21.935Z,1.65
2018-11-03T13:41:53.676Z,1.62
2018-11-03T13:44:24.020Z,1.25
2018-11-03T13:46:53.859Z,2.72
2018-11-03T13:49:23.843Z,2.10
2018-11-03T13:52:08.138Z,4.90
2018-11-03T13:54:38.546Z,4.53
2018-11-03T13:57:08.791Z,4.20
2018-11-03T13:59:39.008Z,2.37
2018-11-03T14:02:08.994Z,1.60
2018-11-03T14:04:39.794Z,1.20
2018-11-03T14:08:11.936Z,2.90
2018-11-03T14:10:42.663Z,2.33
2018-11-03T14:13:12.294Z,3.77
2018-11-03T14:15:43.052Z,3.20
2018-11-03T14:18:13.689Z,4.35
2018-11-03T14:20:44.526Z,3.67
2018-11-03T14:23:14.276Z,4.17
2018-11-03T14:25:43.925Z,2.50
2018-11-03T14:28:14.404Z,4.03
2018-11-03T14:30:44.312Z,8.95
2018-11-03T14:33:15.548Z,5.07
2018-11-03T14:35:47.656Z,6.13
2018-11-03T14:38:17.971Z,7.40
2018-11-03T14:40:49.292Z,5.10
2018-11-03T14:43:19.100Z,6.57
2018-11-03T14:45:49.399Z,9.47
2018-11-03T14:48:19.476Z,12.10
2018-11-03T14:50:49.195Z,24.20
2018-11-03T14:53:19.908Z,20.32
2018-11-03T14:55:49.520Z,14.43
2018-11-03T14:58:19.251Z,4.90
2018-11-03T15:00:48.855Z,5.10
2018-11-03T15:03:18.435Z,3.03
2018-11-03T15:05:48.560Z,1.97
2018-11-03T15:08:18.467Z,2.00
2018-11-03T15:10:48.270Z,1.43
2018-11-03T15:13:17.868Z,1.47
2018-11-03T15:15:47.467Z,1.80
2018-11-03T15:18:17.228Z,1.47
2018-11-03T15:20:46.879Z,3.90
2018-11-03T15:23:16.490Z,1.57
2018-11-03T15:25:46.690Z,2.33
2018-11-03T15:28:18.200Z,8.33
2018-11-03T15:30:48.271Z,5.30
2018-11-03T15:33:18.231Z,4.90
2018-11-03T15:35:48.239Z,1.70
2018-11-03T15:38:18.128Z,2.30
2018-11-03T15:40:47.780Z,3.27
2018-11-03T15:43:18.003Z,6.40
2018-11-03T15:45:47.679Z,3.10
2018-11-03T15:48:17.303Z,2.10
2018-11-03T15:50:49.358Z,72.27
2018-11-03T15:53:19.448Z,11.80
2018-11-03T15:55:49.088Z,8.73
2018-11-03T15:58:18.727Z,3.70
2018-11-03T16:00:48.358Z,2.30
2018-11-03T16:03:18.008Z,5.17
2018-11-03T16:05:48.588Z,3.20
2018-11-03T16:08:18.284Z,1.97
2018-11-03T16:10:47.891Z,1.97
2018-11-03T16:13:19.441Z,1.95
2018-11-03T16:15:50.080Z,1.83
2018-11-03T16:18:21.804Z,3.80
2018-11-03T16:20:52.036Z,9.77
2018-11-03T16:23:22.115Z,6.83
2018-11-03T16:25:52.216Z,5.53
2018-11-03T16:28:23.412Z,4.53
2018-11-03T16:30:53.216Z,2.93
2018-11-03T16:33:23.086Z,2.60
2018-11-03T16:35:52.893Z,2.40
2018-11-03T16:38:22.548Z,1.80
2018-11-03T16:40:52.896Z,11.10
2018-11-03T16:43:22.604Z,22.57
2018-11-03T16:45:52.300Z,11.83
2018-11-03T16:48:21.932Z,5.40
2018-11-03T16:50:51.563Z,4.87
2018-11-03T16:53:21.319Z,11.43
2018-11-03T16:55:51.933Z,7.33
2018-11-03T16:58:21.567Z,3.67
2018-11-03T17:00:51.168Z,2.20
2018-11-03T17:03:21.380Z,3.20
2018-11-03T17:05:51.247Z,11.23
2018-11-03T17:08:21.362Z,9.77
2018-11-03T17:10:52.643Z,9.97
2018-11-03T17:13:22.431Z,3.77
2018-11-03T17:15:52.632Z,1.63
2018-11-03T17:18:23.461Z,1.93
2018-11-03T17:20:53.233Z,1.90
2018-11-03T17:23:23.895Z,1.63
2018-11-03T17:25:54.077Z,1.90
2018-11-03T17:28:23.712Z,1.97
2018-11-03T17:30:53.320Z,2.70
2018-11-03T17:33:22.943Z,2.77
2018-11-03T17:35:56.194Z,2.57
2018-11-03T17:38:28.513Z,2.33
2018-11-03T17:40:59.300Z,4.27
2018-11-03T17:43:28.932Z,5.50
2018-11-03T17:45:59.927Z,2.90
2018-11-03T17:48:30.868Z,5.67
2018-11-03T17:51:00.460Z,6.30
2018-11-03T17:53:31.265Z,4.60
2018-11-03T17:56:02.173Z,4.97
2018-11-03T17:58:32.123Z,4.10
2018-11-03T18:01:02.804Z,6.33
2018-11-03T18:03:32.428Z,4.27
2018-11-03T18:06:02.076Z,4.83
2018-11-03T18:08:38.622Z,4.50
2018-11-03T18:11:10.323Z,5.37
2018-11-03T18:13:40.120Z,8.47
2018-11-03T18:16:09.728Z,15.90
2018-11-03T18:18:39.363Z,26.27
2018-11-03T18:21:09.005Z,30.60
2018-11-03T18:23:39.272Z,35.37
2018-11-03T18:26:08.907Z,18.70
2018-11-03T18:28:38.566Z,14.23
2018-11-03T18:31:08.192Z,20.03
2018-11-03T18:33:37.861Z,15.67
2018-11-03T18:36:07.492Z,9.67
2018-11-03T18:38:37.080Z,5.73
2018-11-03T18:41:06.759Z,16.80
2018-11-03T18:43:37.403Z,15.80
2018-11-03T18:46:08.031Z,14.50
2018-11-03T18:48:37.659Z,8.30
2018-11-03T18:51:07.285Z,6.70
2018-11-03T18:53:36.902Z,6.40
2018-11-03T18:56:07.564Z,9.03
2018-11-03T18:58:40.034Z,13.50
2018-11-03T19:01:12.246Z,11.10
2018-11-03T19:03:42.160Z,10.30
2018-11-03T19:06:11.788Z,9.00
2018-11-03T19:08:41.387Z,9.07
2018-11-03T19:11:11.954Z,7.97
2018-11-03T19:13:41.601Z,19.13
2018-11-03T19:16:11.296Z,15.33
2018-11-03T19:18:40.917Z,11.17
2018-11-03T19:21:11.545Z,9.43
2018-11-03T19:23:41.247Z,6.60
2018-11-03T19:26:10.846Z,4.93
2018-11-03T19:28:40.483Z,5.17
2018-11-03T19:31:10.120Z,7.90
2018-11-03T19:33:40.135Z,5.93
2018-11-03T19:36:09.724Z,9.07
2018-11-03T19:38:39.343Z,6.50
2018-11-03T19:41:09.018Z,5.87
2018-11-03T19:43:39.680Z,5.50
2018-11-03T19:46:10.304Z,5.83
2018-11-03T19:48:40.950Z,8.97
2018-11-03T19:51:11.280Z,8.00
2018-11-03T19:53:40.931Z,9.80
2018-11-03T19:56:10.547Z,11.03
2018-11-03T19:58:40.156Z,14.87
2018-11-03T20:01:10.826Z,29.83
2018-11-03T20:03:40.464Z,32.83
2018-11-03T20:06:11.077Z,33.73
2018-11-03T20:08:40.723Z,18.90
2018-11-03T20:11:10.373Z,17.20
2018-11-03T20:13:41.164Z,17.90
2018-11-03T20:16:10.836Z,15.87
2018-11-03T20:18:40.534Z,18.83
2018-11-03T20:21:10.193Z,22.60
2018-11-03T20:23:39.824Z,40.40
2018-11-03T20:26:09.508Z,62.00
2018-11-03T20:28:39.488Z,96.67
2018-11-03T20:31:09.508Z,83.73
2018-11-03T20:33:40.141Z,90.10
2018-11-03T20:36:09.744Z,82.77
2018-11-03T20:38:39.422Z,82.73
2018-11-03T20:41:09.060Z,84.97
2018-11-03T20:43:38.672Z,88.93
2018-11-03T20:46:08.288Z,107.53
2018-11-03T20:48:37.990Z,87.23
2018-11-03T20:51:08.661Z,93.07
2018-11-03T20:53:39.973Z,101.83
2018-11-03T20:56:10.732Z,116.43
2018-11-03T20:58:40.388Z,107.37
2018-11-03T21:01:10.067Z,110.40
2018-11-03T21:03:39.739Z,117.07
2018-11-03T21:06:09.372Z,128.40
2018-11-03T21:08:39.192Z,173.20
2018-11-03T21:11:08.855Z,156.03
2018-11-03T21:13:39.321Z,162.47
2018-11-03T21:16:08.965Z,153.70
2018-11-03T21:18:38.696Z,156.50
2018-11-03T21:21:08.313Z,167.50
2018-11-03T21:23:38.021Z,159.47
2018-11-03T21:26:07.711Z,160.07
2018-11-03T21:28:39.032Z,177.77
2018-11-03T21:31:08.686Z,184.47
2018-11-03T21:33:38.331Z,179.43
2018-11-03T21:36:07.942Z,229.90
2018-11-03T21:38:38.599Z,205.43
2018-11-03T21:41:08.491Z,186.63
2018-11-03T21:43:39.148Z,182.67
2018-11-03T21:46:08.913Z,188.97
2018-11-03T21:48:38.567Z,175.93
2018-11-03T21:51:08.203Z,168.10
2018-11-03T21:53:37.836Z,164.57
2018-11-03T21:56:08.767Z,161.27
2018-11-03T21:58:38.435Z,139.77
2018-11-03T22:01:08.110Z,141.50
2018-11-03T22:03:38.762Z,142.03
2018-11-03T22:06:09.447Z,144.20
2018-11-03T22:08:39.079Z,129.27
2018-11-03T22:11:08.733Z,103.03
2018-11-03T22:13:39.403Z,82.77
2018-11-03T22:16:09.000Z,84.53
2018-11-03T22:18:39.662Z,79.03
2018-11-03T22:21:09.327Z,74.93
2018-11-03T22:23:38.935Z,72.77
2018-11-03T22:26:08.586Z,75.47
2018-11-03T22:28:39.219Z,82.00
2018-11-03T22:31:08.880Z,95.57
2018-11-03T22:33:38.551Z,76.17
2018-11-03T22:36:08.242Z,74.57
2018-11-03T22:38:38.872Z,71.77
2018-11-03T22:41:08.480Z,69.50
2018-11-03T22:43:38.163Z,66.63
2018-11-03T22:46:07.775Z,62.97
2018-11-03T22:48:38.423Z,54.17
2018-11-03T22:51:12.211Z,53.27
2018-11-03T22:53:42.027Z,57.03
2018-11-03T22:56:11.659Z,57.27
2018-11-03T22:58:41.332Z,57.23
2018-11-03T23:01:10.942Z,49.77
2018-11-03T23:03:41.089Z,65.20
2018-11-03T23:06:10.816Z,71.03
2018-11-03T23:08:40.429Z,64.50
2018-11-03T23:11:10.150Z,65.87
2018-11-03T23:13:40.836Z,52.77
2018-11-03T23:16:10.484Z,45.03
2018-11-03T23:18:41.160Z,40.87
2018-11-03T23:21:11.852Z,40.77
2018-11-03T23:23:41.569Z,39.07
2018-11-03T23:26:11.170Z,36.40
2018-11-03T23:28:40.799Z,38.37
2018-11-03T23:31:10.587Z,35.30
2018-11-03T23:33:40.260Z,27.90
2018-11-03T23:36:10.872Z,27.13
2018-11-03T23:38:40.623Z,28.23
2018-11-03T23:41:10.244Z,31.37
2018-11-03T23:43:40.931Z,32.60
2018-11-03T23:46:10.571Z,35.30
2018-11-03T23:48:40.208Z,39.37
2018-11-03T23:51:09.825Z,42.62
2018-11-03T23:53:39.477Z,38.90
2018-11-03T23:56:09.149Z,25.57
2018-11-03T23:58:39.013Z,24.70
